createdAt,value
2019-01-19T00:02:28.070Z,97.60
2019-01-19T00:05:34.460Z,97.60
2019-01-19T00:08:11.236Z,97.60
2019-01-19T00:10:42.699Z,97.80
2019-01-19T00:13:23.198Z,97.90
2019-01-19T00:16:03.519Z,98.20
2019-01-19T00:18:40.599Z,97.90
2019-01-19T00:21:20.680Z,98.00
2019-01-19T00:23:54.972Z,98.00
2019-01-19T00:26:41.550Z,98.00
2019-01-19T00:29:31.278Z,98.00
2019-01-19T00:32:05.595Z,98.10
2019-01-19T00:34:45.851Z,98.30
2019-01-19T00:37:17.319Z,98.60
2019-01-19T00:39:54.771Z,98.40
2019-01-19T00:42:31.447Z,98.50
2019-01-19T00:45:37.467Z,98.40
2019-01-19T00:48:08.928Z,98.40
2019-01-19T00:50:49.473Z,98.50
2019-01-19T00:53:20.940Z,98.50
2019-01-19T00:56:10.495Z,98.60
2019-01-19T00:58:44.592Z,98.60
2019-01-19T01:01:21.753Z,98.50
2019-01-19T01:04:04.867Z,98.50
2019-01-19T01:06:54.439Z,98.40
2019-01-19T01:09:46.203Z,98.40
2019-01-19T01:12:20.572Z,98.60
2019-01-19T01:15:04.052Z,98.70
2019-01-19T01:17:35.995Z,98.60
2019-01-19T01:20:26.835Z,98.50
2019-01-19T01:23:00.860Z,98.60
2019-01-19T01:25:35.216Z,98.40
2019-01-19T01:28:12.548Z,98.60
2019-01-19T01:30:49.966Z,98.50
2019-01-19T01:33:26.928Z,98.40
2019-01-19T01:36:16.431Z,98.40
2019-01-19T01:38:59.851Z,98.30
2019-01-19T01:42:02.424Z,98.20
2019-01-19T01:44:33.899Z,98.10
2019-01-19T01:47:23.160Z,98.20
2019-01-19T01:50:09.524Z,98.20
2019-01-19T01:52:46.931Z,98.10
2019-01-19T01:55:24.095Z,98.10
2019-01-19T01:57:55.559Z,98.20
2019-01-19T02:00:27.029Z,98.20
2019-01-19T02:03:25.495Z,98.30
2019-01-19T02:06:02.598Z,98.30
2019-01-19T02:08:39.799Z,98.30
2019-01-19T02:11:11.260Z,98.70
2019-01-19T02:13:51.615Z,98.30
2019-01-19T02:16:47.271Z,98.30
2019-01-19T02:19:21.809Z,98.20
2019-01-19T02:21:56.143Z,98.30
2019-01-19T02:25:02.439Z,98.40
2019-01-19T02:27:48.972Z,98.60
2019-01-19T02:30:32.273Z,98.50
2019-01-19T02:33:03.735Z,98.40
2019-01-19T02:35:48.660Z,98.50
2019-01-19T02:38:29.144Z,98.50
2019-01-19T02:41:24.659Z,98.30
2019-01-19T02:44:08.087Z,98.40
2019-01-19T02:46:51.498Z,98.40
2019-01-19T02:49:28.672Z,98.30
2019-01-19T02:52:05.908Z,98.50
2019-01-19T02:54:42.959Z,98.60
2019-01-19T02:57:46.251Z,98.60
2019-01-19T03:00:29.516Z,98.70
2019-01-19T03:03:00.976Z,98.70
2019-01-19T03:05:38.216Z,98.90
2019-01-19T03:08:36.387Z,98.80
2019-01-19T03:11:16.631Z,98.80
2019-01-19T03:13:53.872Z,98.90
2019-01-19T03:16:34.192Z,98.90
2019-01-19T03:19:11.596Z,99.00
2019-01-19T03:22:07.183Z,99.20
2019-01-19T03:24:56.736Z,99.00
2019-01-19T03:27:28.219Z,99.10
2019-01-19T03:30:39.958Z,98.80
2019-01-19T03:33:13.994Z,99.00
2019-01-19T03:35:54.201Z,98.90
2019-01-19T03:38:25.672Z,98.90
2019-01-19T03:41:12.206Z,99.10
2019-01-19T03:43:49.784Z,99.10
2019-01-19T03:46:36.607Z,99.30
2019-01-19T03:49:27.032Z,99.30
2019-01-19T03:52:01.147Z,99.10
2019-01-19T03:54:52.035Z,99.10
2019-01-19T03:57:26.052Z,99.10
2019-01-19T04:00:03.362Z,99.00
2019-01-19T04:03:07.893Z,99.00
2019-01-19T04:05:42.012Z,99.00
2019-01-19T04:08:40.564Z,99.00
2019-01-19T04:11:12.040Z,99.10
2019-01-19T04:13:52.021Z,99.00
2019-01-19T04:16:32.288Z,98.90
2019-01-19T04:19:06.695Z,99.00
2019-01-19T04:21:54.511Z,99.00
2019-01-19T04:24:25.845Z,98.90
2019-01-19T04:26:54.136Z,98.80
2019-01-19T04:29:22.348Z,98.70
2019-01-19T04:31:50.576Z,98.60
2019-01-19T04:34:18.959Z,98.60
2019-01-19T04:36:47.433Z,98.70
2019-01-19T04:39:15.711Z,98.80
2019-01-19T04:41:43.925Z,98.70
2019-01-19T04:44:12.130Z,98.80
2019-01-19T04:46:40.336Z,98.80
2019-01-19T04:49:09.264Z,98.80
2019-01-19T04:51:37.464Z,98.80
2019-01-19T04:54:05.674Z,99.00
2019-01-19T04:56:33.881Z,99.00
2019-01-19T04:59:02.320Z,98.80
2019-01-19T05:01:30.536Z,98.80
2019-01-19T05:03:58.740Z,98.90
2019-01-19T05:06:30.530Z,98.90
2019-01-19T05:08:56.876Z,98.90
2019-01-19T05:11:25.097Z,98.70
2019-01-19T05:13:53.300Z,98.80
2019-01-19T05:16:21.517Z,99.00
2019-01-19T05:18:49.727Z,98.70
2019-01-19T05:21:18.407Z,98.50
2019-01-19T05:23:46.791Z,98.60
2019-01-19T05:26:14.992Z,98.60
2019-01-19T05:28:43.195Z,98.60
2019-01-19T05:31:11.407Z,98.60
2019-01-19T05:33:39.613Z,98.40
2019-01-19T05:36:07.816Z,98.70
2019-01-19T05:38:36.100Z,98.40
2019-01-19T05:41:04.317Z,98.40
2019-01-19T05:43:32.747Z,98.30
2019-01-19T05:46:00.964Z,98.20
2019-01-19T05:48:29.172Z,98.50
2019-01-19T05:50:57.376Z,98.00
2019-01-19T05:53:25.584Z,98.00
2019-01-19T05:55:53.779Z,98.00
2019-01-19T05:58:21.995Z,98.10
2019-01-19T06:00:50.201Z,98.10
2019-01-19T06:03:18.415Z,98.10
2019-01-19T06:05:46.699Z,98.20
2019-01-19T06:08:14.907Z,98.00
2019-01-19T06:10:43.891Z,98.10
2019-01-19T06:13:12.099Z,98.20
2019-01-19T06:15:40.312Z,98.20
2019-01-19T06:18:08.513Z,98.20
2019-01-19T06:20:36.726Z,98.20
2019-01-19T06:23:04.928Z,98.00
2019-01-19T06:25:33.143Z,98.20
2019-01-19T06:28:01.344Z,98.20
2019-01-19T06:30:29.561Z,98.10
2019-01-19T06:32:57.782Z,98.00
2019-01-19T06:35:26.220Z,97.90
2019-01-19T06:37:54.415Z,97.90
2019-01-19T06:40:22.636Z,98.00
2019-01-19T06:42:50.839Z,97.90
2019-01-19T06:45:21.937Z,98.00
2019-01-19T06:48:09.586Z,98.00
2019-01-19T06:50:37.784Z,97.90
2019-01-19T06:53:05.996Z,97.90
2019-01-19T06:55:34.192Z,97.80
2019-01-19T06:58:02.412Z,97.80
2019-01-19T07:00:30.616Z,97.90
2019-01-19T07:02:58.824Z,97.90
2019-01-19T07:05:27.045Z,98.10
2019-01-19T07:07:55.245Z,98.10
2019-01-19T07:10:25.290Z,98.20
2019-01-19T07:12:53.495Z,98.30
2019-01-19T07:15:21.699Z,98.30
2019-01-19T07:17:49.918Z,98.20
2019-01-19T07:20:23.608Z,98.20
2019-01-19T07:22:51.812Z,98.40
2019-01-19T07:25:20.040Z,98.40
2019-01-19T07:27:48.242Z,98.30
2019-01-19T07:30:17.015Z,98.40
2019-01-19T07:32:46.468Z,98.30
2019-01-19T07:35:15.316Z,98.40
2019-01-19T07:37:43.756Z,98.30
2019-01-19T07:40:17.360Z,98.30
2019-01-19T07:42:46.280Z,98.30
2019-01-19T07:45:15.219Z,98.20
2019-01-19T07:47:44.651Z,98.10
2019-01-19T07:50:15.256Z,97.90
2019-01-19T07:52:43.459Z,97.80
2019-01-19T07:55:13.815Z,97.60
2019-01-19T07:57:42.015Z,97.70
2019-01-19T08:00:16.280Z,97.50
2019-01-19T08:02:44.483Z,97.50
2019-01-19T08:05:12.693Z,97.50
2019-01-19T08:07:40.916Z,97.30
2019-01-19T08:10:16.836Z,97.20
2019-01-19T08:12:45.060Z,97.00
2019-01-19T08:15:15.872Z,97.10
2019-01-19T08:17:44.088Z,96.90
2019-01-19T08:20:13.632Z,96.80
2019-01-19T08:22:41.858Z,96.60
2019-01-19T08:25:11.613Z,96.30
2019-01-19T08:27:39.891Z,96.30
2019-01-19T08:30:20.185Z,96.00
2019-01-19T08:32:48.399Z,95.70
2019-01-19T08:35:17.627Z,95.40
2019-01-19T08:37:46.267Z,95.00
2019-01-19T08:40:20.379Z,94.90
2019-01-19T08:42:50.223Z,94.50
2019-01-19T08:45:19.087Z,94.10
2019-01-19T08:47:47.303Z,93.50
2019-01-19T08:50:15.521Z,92.40
2019-01-19T08:52:43.715Z,91.50
2019-01-19T08:55:11.919Z,91.20
2019-01-19T08:57:40.132Z,91.40
2019-01-19T09:00:16.890Z,91.40
2019-01-19T09:02:45.119Z,90.50
2019-01-19T09:05:13.512Z,90.00
2019-01-19T09:07:41.708Z,89.30
2019-01-19T09:10:13.060Z,89.80
2019-01-19T09:12:41.480Z,87.80
2019-01-19T09:15:18.195Z,86.20
2019-01-19T09:17:46.389Z,85.30
2019-01-19T09:20:17.763Z,83.40
2019-01-19T09:22:47.611Z,82.60
2019-01-19T09:25:16.143Z,81.90
2019-01-19T09:27:44.408Z,80.10
2019-01-19T09:30:17.603Z,77.50
2019-01-19T09:32:45.869Z,73.90
2019-01-19T09:35:14.063Z,71.50
2019-01-19T09:37:42.276Z,70.00
2019-01-19T09:40:15.329Z,67.70
2019-01-19T09:42:43.771Z,67.00
2019-01-19T09:45:16.951Z,65.50
2019-01-19T09:47:45.161Z,65.10
2019-01-19T09:50:15.400Z,64.70
2019-01-19T09:52:43.596Z,63.10
2019-01-19T09:55:11.804Z,62.10
2019-01-19T09:57:40.012Z,61.30
2019-01-19T10:00:16.852Z,60.70
2019-01-19T10:02:45.065Z,60.40
2019-01-19T10:05:15.996Z,58.30
2019-01-19T10:07:48.490Z,58.20
2019-01-19T10:10:14.187Z,57.70
2019-01-19T10:12:42.395Z,57.10
2019-01-19T10:15:16.451Z,56.10
2019-01-19T10:17:44.638Z,55.80
2019-01-19T10:20:24.235Z,54.50
2019-01-19T10:22:52.424Z,54.60
2019-01-19T10:25:20.633Z,53.80
2019-01-19T10:27:48.819Z,53.10
2019-01-19T10:30:22.966Z,52.50
2019-01-19T10:32:51.219Z,51.90
2019-01-19T10:35:19.416Z,51.00
2019-01-19T10:37:47.606Z,51.80
2019-01-19T10:40:17.247Z,51.10
2019-01-19T10:42:45.619Z,51.80
2019-01-19T10:45:19.427Z,49.50
2019-01-19T10:47:47.623Z,49.80
2019-01-19T10:50:17.567Z,50.40
2019-01-19T10:52:46.200Z,49.60
2019-01-19T10:55:16.756Z,49.50
2019-01-19T10:57:44.947Z,49.60
2019-01-19T11:00:24.592Z,48.60
2019-01-19T11:02:53.123Z,48.10
2019-01-19T11:05:21.401Z,48.70
2019-01-19T11:07:49.961Z,48.60
2019-01-19T11:10:20.303Z,47.80
2019-01-19T11:12:48.510Z,47.00
2019-01-19T11:15:18.244Z,45.30
2019-01-19T11:17:46.687Z,44.70
2019-01-19T11:20:23.435Z,45.00
2019-01-19T11:22:51.640Z,44.50
2019-01-19T11:25:19.833Z,43.60
2019-01-19T11:27:48.040Z,42.70
2019-01-19T11:30:19.147Z,42.60
2019-01-19T11:32:47.335Z,42.20
2019-01-19T11:35:15.796Z,44.50
2019-01-19T11:37:44.010Z,43.60
2019-01-19T11:40:18.278Z,42.90
2019-01-19T11:42:46.827Z,44.10
2019-01-19T11:45:20.073Z,43.60
2019-01-19T11:47:48.263Z,44.10
2019-01-19T11:50:16.472Z,42.80
2019-01-19T11:52:45.029Z,42.80
2019-01-19T11:55:17.107Z,42.90
2019-01-19T11:57:45.311Z,43.80
2019-01-19T12:00:27.436Z,42.60
2019-01-19T12:02:55.624Z,41.30
2019-01-19T12:05:23.823Z,41.80
2019-01-19T12:07:52.027Z,43.10
2019-01-19T12:10:22.168Z,44.80
2019-01-19T12:12:50.363Z,44.30
2019-01-19T12:15:18.568Z,45.80
2019-01-19T12:17:46.759Z,44.40
2019-01-19T12:20:21.009Z,44.40
2019-01-19T12:22:49.200Z,45.60
2019-01-19T12:25:19.932Z,45.30
2019-01-19T12:27:48.135Z,44.60
2019-01-19T12:30:24.751Z,44.90
2019-01-19T12:32:52.950Z,45.50
2019-01-19T12:35:21.143Z,45.60
2019-01-19T12:37:49.342Z,45.70
2019-01-19T12:40:19.783Z,44.90
2019-01-19T12:42:49.336Z,43.20
2019-01-19T12:45:27.027Z,42.60
2019-01-19T12:47:55.231Z,44.30
2019-01-19T12:50:25.775Z,46.10
2019-01-19T12:52:53.972Z,44.30
2019-01-19T12:55:22.316Z,44.30
2019-01-19T12:57:50.583Z,44.80
2019-01-19T13:00:27.304Z,44.50
2019-01-19T13:02:56.137Z,44.00
2019-01-19T13:05:36.751Z,44.40
2019-01-19T13:08:08.343Z,44.20
2019-01-19T13:10:39.815Z,42.70
2019-01-19T13:13:08.368Z,43.60
2019-01-19T13:15:57.645Z,43.50
2019-01-19T13:18:50.247Z,43.90
2019-01-19T13:21:41.123Z,45.20
2019-01-19T13:24:18.398Z,45.30
2019-01-19T13:26:58.544Z,44.40
2019-01-19T13:29:35.572Z,43.60
2019-01-19T13:32:13.007Z,43.30
2019-01-19T13:35:11.899Z,43.50
2019-01-19T13:38:12.131Z,42.90
2019-01-19T13:40:49.324Z,42.20
2019-01-19T13:43:46.799Z,42.00
2019-01-19T13:46:42.043Z,42.30
2019-01-19T13:49:22.147Z,41.90
2019-01-19T13:51:53.591Z,42.30
2019-01-19T13:54:28.096Z,43.00
2019-01-19T13:56:59.547Z,42.60
2019-01-19T13:59:47.840Z,42.70
2019-01-19T14:02:35.864Z,42.60
2019-01-19T14:05:19.195Z,44.60
2019-01-19T14:08:09.635Z,44.50
2019-01-19T14:10:46.955Z,43.40
2019-01-19T14:13:34.787Z,43.70
2019-01-19T14:16:08.919Z,44.90
2019-01-19T14:18:40.794Z,44.80
2019-01-19T14:21:24.135Z,45.50
2019-01-19T14:23:58.824Z,45.40
2019-01-19T14:26:39.252Z,46.50
2019-01-19T14:29:28.288Z,47.50
2019-01-19T14:32:19.189Z,47.40
2019-01-19T14:35:09.987Z,47.20
2019-01-19T14:38:02.048Z,46.30
2019-01-19T14:40:44.932Z,47.20
2019-01-19T14:43:22.135Z,49.40
2019-01-19T14:45:56.435Z,50.90
2019-01-19T14:48:46.259Z,50.90
2019-01-19T14:51:38.260Z,52.00
2019-01-19T14:54:12.364Z,51.70
2019-01-19T14:56:46.798Z,51.90
2019-01-19T14:59:26.995Z,51.80
2019-01-19T15:02:12.908Z,51.10
2019-01-19T15:04:53.187Z,51.20
2019-01-19T15:07:36.083Z,51.00
2019-01-19T15:10:22.403Z,52.80
2019-01-19T15:12:59.648Z,54.60
2019-01-19T15:15:42.997Z,54.30
2019-01-19T15:18:35.287Z,52.10
2019-01-19T15:21:27.680Z,51.70
2019-01-19T15:24:04.608Z,51.30
2019-01-19T15:26:48.187Z,51.10
2019-01-19T15:29:22.516Z,51.20
2019-01-19T15:31:53.959Z,51.40
2019-01-19T15:34:37.568Z,50.70
2019-01-19T15:37:18.175Z,50.70
2019-01-19T15:39:55.555Z,51.00
2019-01-19T15:42:29.672Z,52.30
2019-01-19T15:45:09.795Z,52.60
2019-01-19T15:47:47.275Z,54.20
2019-01-19T15:50:21.240Z,56.40
2019-01-19T15:52:52.710Z,58.10
2019-01-19T15:55:36.198Z,59.50
2019-01-19T15:58:25.914Z,61.00
2019-01-19T16:00:57.375Z,62.10
2019-01-19T16:03:31.789Z,64.60
2019-01-19T16:06:12.363Z,66.20
2019-01-19T16:09:03.860Z,67.30
2019-01-19T16:11:35.323Z,69.50
2019-01-19T16:14:29.702Z,70.20
2019-01-19T16:17:32.967Z,70.90
2019-01-19T16:20:25.428Z,70.20
2019-01-19T16:22:59.672Z,70.70
2019-01-19T16:25:39.963Z,72.10
2019-01-19T16:28:16.612Z,72.60
2019-01-19T16:31:03.068Z,73.00
2019-01-19T16:33:46.536Z,73.60
2019-01-19T16:36:33.011Z,73.90
2019-01-19T16:39:25.557Z,74.90
2019-01-19T16:41:52.643Z,75.10
2019-01-19T16:44:56.860Z,75.70
2019-01-19T16:47:44.909Z,75.70
2019-01-19T16:50:27.764Z,75.90
2019-01-19T16:53:01.809Z,76.40
2019-01-19T16:55:45.067Z,76.70
2019-01-19T16:58:34.828Z,77.40
2019-01-19T17:01:25.763Z,77.50
2019-01-19T17:04:06.187Z,78.30
2019-01-19T17:06:40.319Z,77.70
2019-01-19T17:09:17.383Z,78.50
2019-01-19T17:12:05.235Z,79.10
2019-01-19T17:14:58.475Z,79.20
2019-01-19T17:18:04.046Z,80.10
2019-01-19T17:20:44.472Z,80.00
2019-01-19T17:23:29.262Z,79.80
2019-01-19T17:26:03.502Z,79.50
2019-01-19T17:28:41.001Z,79.10
2019-01-19T17:31:27.187Z,78.90
2019-01-19T17:34:16.763Z,78.80
2019-01-19T17:37:08.679Z,79.00
2019-01-19T17:39:48.972Z,79.20
2019-01-19T17:42:45.444Z,80.00
2019-01-19T17:45:23.019Z,80.40
2019-01-19T17:48:21.827Z,80.80
2019-01-19T17:51:17.067Z,79.80
2019-01-19T17:54:13.765Z,80.90
2019-01-19T17:56:48.040Z,80.00
2019-01-19T17:59:34.596Z,80.20
2019-01-19T18:02:30.019Z,79.90
2019-01-19T18:05:12.692Z,80.00
2019-01-19T18:07:49.871Z,79.80
2019-01-19T18:10:42.476Z,79.50
2019-01-19T18:13:13.935Z,79.80
2019-01-19T18:15:57.585Z,79.80
2019-01-19T18:18:48.576Z,80.00
2019-01-19T18:21:34.786Z,80.10
2019-01-19T18:24:15.535Z,80.90
2019-01-19T18:26:58.799Z,81.60
2019-01-19T18:30:08.878Z,82.60
2019-01-19T18:32:49.350Z,82.90
2019-01-19T18:35:48.652Z,83.10
2019-01-19T18:38:36.547Z,84.00
2019-01-19T18:41:28.448Z,83.50
2019-01-19T18:44:11.735Z,83.50
2019-01-19T18:46:55.411Z,83.30
2019-01-19T18:49:41.463Z,82.30
2019-01-19T18:52:35.688Z,83.10
2019-01-19T18:55:12.684Z,84.20
2019-01-19T18:58:00.377Z,85.00
2019-01-19T19:00:49.809Z,86.00
2019-01-19T19:03:45.157Z,85.80
2019-01-19T19:06:34.424Z,85.40
2019-01-19T19:09:32.923Z,85.00
2019-01-19T19:12:19.337Z,84.30
2019-01-19T19:15:02.885Z,84.00
2019-01-19T19:17:53.703Z,84.20
2019-01-19T19:20:46.379Z,83.90
2019-01-19T19:23:29.851Z,83.90
2019-01-19T19:26:04.239Z,83.90
2019-01-19T19:28:41.427Z,84.90
2019-01-19T19:31:34.124Z,85.50
2019-01-19T19:34:08.379Z,85.30
2019-01-19T19:37:04.683Z,84.40
2019-01-19T19:39:52.916Z,83.90
2019-01-19T19:42:36.405Z,84.10
2019-01-19T19:45:13.962Z,84.30
2019-01-19T19:48:01.911Z,84.80
2019-01-19T19:50:39.303Z,85.20
2019-01-19T19:53:07.744Z,85.90
2019-01-19T19:55:35.067Z,86.70
2019-01-19T19:58:03.265Z,87.20
2019-01-19T20:00:31.551Z,86.90
2019-01-19T20:02:59.756Z,87.20
2019-01-19T20:05:27.960Z,87.50
2019-01-19T20:07:57.000Z,87.10
2019-01-19T20:10:25.203Z,86.80
2019-01-19T20:12:53.409Z,86.60
2019-01-19T20:15:21.616Z,86.70
2019-01-19T20:17:49.824Z,86.60
2019-01-19T20:20:18.033Z,86.60
2019-01-19T20:22:46.240Z,86.60
2019-01-19T20:25:14.461Z,86.60
2019-01-19T20:27:42.679Z,87.10
2019-01-19T20:30:14.132Z,87.00
2019-01-19T20:32:42.336Z,87.20
2019-01-19T20:35:10.541Z,87.20
2019-01-19T20:37:38.743Z,86.80
2019-01-19T20:40:08.939Z,86.90
2019-01-19T20:42:37.143Z,87.10
2019-01-19T20:45:13.394Z,87.20
2019-01-19T20:47:41.589Z,87.30
2019-01-19T20:50:17.224Z,87.30
2019-01-19T20:52:45.422Z,87.50
2019-01-19T20:55:13.630Z,87.90
2019-01-19T20:57:41.840Z,88.00
2019-01-19T21:00:18.169Z,88.10
2019-01-19T21:02:46.356Z,88.80
2019-01-19T21:05:14.559Z,88.80
2019-01-19T21:07:42.774Z,88.80
2019-01-19T21:10:10.972Z,89.20
2019-01-19T21:12:39.191Z,88.70
2019-01-19T21:15:10.691Z,89.30
2019-01-19T21:17:38.889Z,89.20
2019-01-19T21:20:09.640Z,89.10
2019-01-19T21:22:37.847Z,88.80
2019-01-19T21:25:07.687Z,88.80
2019-01-19T21:27:35.895Z,88.80
2019-01-19T21:30:06.991Z,89.60
2019-01-19T21:32:35.204Z,89.40
2019-01-19T21:35:04.180Z,89.50
2019-01-19T21:37:32.388Z,89.70
2019-01-19T21:40:00.596Z,89.70
2019-01-19T21:42:28.803Z,90.00
2019-01-19T21:44:57.005Z,89.70
2019-01-19T21:47:25.196Z,89.40
2019-01-19T21:49:53.412Z,89.20
2019-01-19T21:52:21.605Z,89.50
2019-01-19T21:54:49.816Z,89.20
2019-01-19T21:57:18.020Z,89.20
2019-01-19T21:59:46.219Z,89.50
2019-01-19T22:02:14.432Z,89.10
2019-01-19T22:04:42.633Z,89.10
2019-01-19T22:07:10.824Z,89.00
2019-01-19T22:09:39.031Z,89.10
2019-01-19T22:12:07.239Z,88.80
2019-01-19T22:14:35.451Z,88.80
2019-01-19T22:17:03.652Z,88.70
2019-01-19T22:19:31.859Z,88.30
2019-01-19T22:22:00.059Z,87.80
2019-01-19T22:24:28.256Z,87.70
2019-01-19T22:26:56.736Z,87.60
2019-01-19T22:29:25.015Z,87.40
2019-01-19T22:32:12.656Z,86.70
2019-01-19T22:34:40.867Z,86.80
2019-01-19T22:37:09.068Z,88.00
2019-01-19T22:39:37.264Z,88.80
2019-01-19T22:42:05.473Z,88.90
2019-01-19T22:44:33.679Z,89.90
2019-01-19T22:47:01.875Z,90.00
2019-01-19T22:49:30.084Z,90.20
2019-01-19T22:51:58.279Z,90.30
2019-01-19T22:54:26.483Z,90.30
2019-01-19T22:56:56.163Z,90.10
2019-01-19T22:59:24.576Z,90.00
2019-01-19T23:01:52.771Z,89.50
2019-01-19T23:04:20.978Z,89.40
2019-01-19T23:06:49.254Z,90.00
2019-01-19T23:09:17.467Z,89.80
2019-01-19T23:11:45.737Z,89.20
2019-01-19T23:14:14.210Z,89.10
2019-01-19T23:16:42.421Z,88.70
2019-01-19T23:19:30.047Z,88.20
2019-01-19T23:21:58.259Z,88.20
2019-01-19T23:24:26.464Z,88.40
2019-01-19T23:26:55.844Z,88.50
2019-01-19T23:29:24.043Z,88.80
2019-01-19T23:31:52.251Z,89.10
2019-01-19T23:34:20.454Z,89.30
2019-01-19T23:36:48.731Z,89.00
2019-01-19T23:39:16.935Z,89.30
2019-01-19T23:41:45.132Z,89.60
2019-01-19T23:44:13.344Z,90.00
2019-01-19T23:46:41.536Z,90.30
2019-01-19T23:49:09.751Z,90.40
2019-01-19T23:51:37.944Z,90.30
2019-01-19T23:54:06.155Z,90.30
2019-01-19T23:56:34.355Z,90.40
2019-01-19T23:59:02.833Z,90.30
